Time;durP1;ratioP1;P1;durP2;ratioP2;P2;SDS_P1;SDS_P2;PMS_P1;PMS_P2;Temp;Humidity;BMP_temperature;BMP_pressure;BME280_temperature;BME280_humidity;BME280_pressure;Samples;Min_cycle;Max_cycle;Signal;HPM_P1;HPM_P2
2023/11/26 00:00:05;;;;;;;1.13;0.85;;;17.30;55.30;;;;;;6106923;23;20249;-83
2023/11/26 00:02:30;;;;;;;0.80;0.80;;;17.40;55.50;;;;;;6130418;23;20162;-83
2023/11/26 00:04:57;;;;;;;0.98;0.90;;;17.30;55.30;;;;;;6105618;23;20604;-84
2023/11/26 00:10:00;;;;;;;2.05;1.00;;;17.30;55.30;;;;;;6155412;23;20187;-83
2023/11/26 00:12:26;;;;;;;0.80;0.80;;;17.30;55.40;;;;;;6104076;23;20155;-83
2023/11/26 00:14:52;;;;;;;1.10;0.95;;;17.30;55.30;;;;;;6129199;23;20135;-83
2023/11/26 00:17:22;;;;;;;1.00;0.90;;;17.30;55.40;;;;;;6129417;23;20131;-82
2023/11/26 00:19:49;;;;;;;0.70;0.70;;;17.30;55.30;;;;;;6129168;23;20203;-82
2023/11/26 00:22:15;;;;;;;0.90;0.80;;;17.30;55.40;;;;;;6128130;23;20250;-84
2023/11/26 00:24:41;;;;;;;0.88;0.80;;;17.30;55.30;;;;;;6156380;23;20158;-84
2023/11/26 00:27:07;;;;;;;1.00;0.80;;;17.30;55.30;;;;;;6130172;23;20159;-83
2023/11/26 00:29:40;;;;;;;0.70;0.70;;;17.30;55.30;;;;;;6129315;23;20178;-83
2023/11/26 00:32:07;;;;;;;0.90;0.85;;;17.30;55.30;;;;;;6130254;23;20294;-82
2023/11/26 00:34:34;;;;;;;1.08;0.98;;;17.30;55.30;;;;;;6155761;23;20132;-82
2023/11/26 00:37:00;;;;;;;0.80;0.80;;;17.30;55.30;;;;;;6122155;23;20195;-83
2023/11/26 00:39:26;;;;;;;0.90;0.80;;;17.30;55.30;;;;;;6123773;23;20152;-82
2023/11/26 00:41:52;;;;;;;0.70;0.70;;;17.30;55.30;;;;;;6123174;23;20155;-83
2023/11/26 00:44:18;;;;;;;0.93;0.80;;;17.30;55.30;;;;;;6153009;23;20212;-83
2023/11/26 00:46:43;;;;;;;0.80;0.80;;;17.30;55.30;;;;;;6185970;23;20505;-82
2023/11/26 00:49:09;;;;;;;0.95;0.80;;;17.30;55.30;;;;;;6184173;23;20127;-83
2023/11/26 00:51:35;;;;;;;1.25;1.02;;;17.30;55.10;;;;;;6156875;23;20154;-83
2023/11/26 00:54:02;;;;;;;1.02;0.90;;;17.20;55.20;;;;;;6157287;23;20226;-82
2023/11/26 00:56:28;;;;;;;0.98;0.80;;;17.30;55.30;;;;;;6159605;23;20209;-84
2023/11/26 00:58:55;;;;;;;0.88;0.88;;;17.30;55.30;;;;;;6134609;23;20517;-84
2023/11/26 01:01:21;;;;;;;1.02;0.77;;;17.30;55.30;;;;;;6133925;23;20210;-84
2023/11/26 01:03:47;;;;;;;1.00;0.90;;;17.20;55.20;;;;;;6159313;23;20185;-82
2023/11/26 01:06:13;;;;;;;0.80;0.80;;;17.30;55.20;;;;;;6158830;23;20143;-82
2023/11/26 01:08:39;;;;;;;1.20;0.80;;;17.30;55.30;;;;;;6134711;23;20186;-82
2023/11/26 01:11:05;;;;;;;0.85;0.85;;;17.20;55.30;;;;;;6158760;23;20586;-84
2023/11/26 01:13:31;;;;;;;1.08;0.95;;;17.20;55.20;;;;;;6159512;23;20175;-83
2023/11/26 01:15:57;;;;;;;1.15;0.90;;;17.30;55.20;;;;;;6159209;23;20185;-82
2023/11/26 01:18:23;;;;;;;0.90;0.90;;;17.30;55.10;;;;;;6159482;23;20134;-83
2023/11/26 01:20:48;;;;;;;1.27;0.88;;;17.30;55.00;;;;;;6159179;23;20681;-83
2023/11/26 01:23:15;;;;;;;0.98;0.90;;;17.30;55.20;;;;;;6158083;23;20139;-83
2023/11/26 01:25:42;;;;;;;1.10;1.00;;;17.30;55.20;;;;;;6156962;23;20192;-83
2023/11/26 01:28:08;;;;;;;0.82;0.82;;;17.30;55.30;;;;;;6151090;23;20557;-83
2023/11/26 01:30:33;;;;;;;1.00;0.90;;;17.20;55.20;;;;;;6154780;23;20215;-83
2023/11/26 01:33:00;;;;;;;1.00;0.90;;;17.30;55.10;;;;;;6153774;23;20136;-84
2023/11/26 01:35:26;;;;;;;0.70;0.70;;;17.20;55.30;;;;;;6079232;23;20151;-83
2023/11/26 01:37:52;;;;;;;1.05;0.70;;;17.20;55.20;;;;;;6128544;23;20210;-83
2023/11/26 01:40:17;;;;;;;1.35;0.80;;;17.20;55.00;;;;;;6127077;23;20171;-82
2023/11/26 01:42:44;;;;;;;1.35;1.00;;;17.20;55.30;;;;;;6128641;23;20148;-83
2023/11/26 01:45:11;;;;;;;0.73;0.73;;;17.20;55.30;;;;;;6155178;23;20135;-84
2023/11/26 01:47:38;;;;;;;1.50;0.85;;;17.20;55.10;;;;;;6104660;23;20254;-83
2023/11/26 01:50:06;;;;;;;0.80;0.80;;;17.20;55.10;;;;;;6150929;23;20135;-83
2023/11/26 01:52:32;;;;;;;0.98;0.93;;;17.30;55.00;;;;;;6079750;23;20238;-83
2023/11/26 01:54:58;;;;;;;1.08;0.95;;;17.20;55.10;;;;;;6151993;23;20139;-83
2023/11/26 01:57:23;;;;;;;1.08;0.90;;;17.20;55.10;;;;;;6126839;23;20135;-83
2023/11/26 01:59:49;;;;;;;0.80;0.80;;;17.20;55.00;;;;;;6103406;23;20215;-84
2023/11/26 02:02:16;;;;;;;0.80;0.80;;;17.20;55.20;;;;;;6155141;23;20528;-84
2023/11/26 02:04:43;;;;;;;0.70;0.70;;;17.20;55.00;;;;;;6103379;23;20220;-83
2023/11/26 02:07:09;;;;;;;0.93;0.80;;;17.30;55.10;;;;;;6128982;23;20171;-83
2023/11/26 02:09:35;;;;;;;1.05;0.93;;;17.30;55.10;;;;;;6127262;23;20555;-84
2023/11/26 02:12:00;;;;;;;1.00;0.82;;;17.20;55.10;;;;;;6128455;23;20147;-83
2023/11/26 02:14:26;;;;;;;0.82;0.80;;;17.20;55.00;;;;;;6092551;23;20655;-83
2023/11/26 02:16:52;;;;;;;1.08;0.98;;;17.20;55.20;;;;;;6098307;23;20572;-83
2023/11/26 02:19:26;;;;;;;0.90;0.90;;;17.20;55.00;;;;;;6074862;23;20156;-83
2023/11/26 02:21:53;;;;;;;0.90;0.75;;;17.20;55.00;;;;;;6074749;23;20186;-82
2023/11/26 02:24:24;;;;;;;0.90;0.85;;;17.10;55.00;;;;;;6098538;23;20129;-82
2023/11/26 02:26:50;;;;;;;0.70;0.70;;;17.10;55.00;;;;;;6098418;23;20192;-82
2023/11/26 02:29:16;;;;;;;0.93;0.80;;;17.20;55.00;;;;;;6098650;23;20136;-83
2023/11/26 02:31:42;;;;;;;0.80;0.80;;;17.20;55.00;;;;;;6050873;23;20576;-83
2023/11/26 02:34:08;;;;;;;1.95;1.02;;;17.20;55.00;;;;;;6098121;23;20643;-84
2023/11/26 02:36:34;;;;;;;1.35;1.00;;;17.20;54.90;;;;;;6097761;23;20136;-83
2023/11/26 02:39:01;;;;;;;0.90;0.90;;;17.20;54.90;;;;;;6049966;23;20462;-84
2023/11/26 02:41:26;;;;;;;0.88;0.88;;;17.20;55.60;;;;;;6123638;23;20159;-83
2023/11/26 02:43:52;;;;;;;1.50;1.00;;;17.20;55.00;;;;;;6046002;23;1300472;-84
2023/11/26 02:46:18;;;;;;;1.05;0.95;;;17.20;54.90;;;;;;6153683;23;20144;-84
2023/11/26 02:48:44;;;;;;;0.75;0.75;;;17.20;55.00;;;;;;6128202;23;20146;-83
2023/11/26 02:51:10;;;;;;;1.10;0.70;;;17.20;54.90;;;;;;6128530;23;20151;-83
2023/11/26 02:53:35;;;;;;;1.50;0.77;;;17.20;54.90;;;;;;6125758;23;20295;-82
2023/11/26 02:56:02;;;;;;;1.20;0.93;;;17.20;55.00;;;;;;6103710;23;20559;-82
2023/11/26 02:58:27;;;;;;;1.25;1.00;;;17.10;54.90;;;;;;6126414;23;20138;-83
2023/11/26 03:00:53;;;;;;;0.70;0.70;;;17.20;55.00;;;;;;6099743;23;20191;-85
2023/11/26 03:03:19;;;;;;;0.70;0.70;;;17.20;54.90;;;;;;6127370;23;20139;-87
2023/11/26 03:08:32;;;;;;;1.17;0.95;;;17.20;55.00;;;;;;6147049;23;20237;-83
2023/11/26 03:13:35;;;;;;;0.75;0.73;;;17.10;55.00;;;;;;6154128;23;20590;-82
2023/11/26 03:16:07;;;;;;;0.90;0.90;;;17.10;54.90;;;;;;6128870;23;20135;-82
2023/11/26 03:18:34;;;;;;;0.93;0.85;;;17.10;55.00;;;;;;6128952;23;20143;-84
2023/11/26 03:21:00;;;;;;;0.98;0.80;;;17.10;54.90;;;;;;6128585;23;20164;-83
2023/11/26 03:23:26;;;;;;;0.70;0.70;;;17.10;55.00;;;;;;6155182;23;20131;-83
2023/11/26 03:25:53;;;;;;;1.58;0.85;;;17.10;55.00;;;;;;6155133;23;20176;-83
2023/11/26 03:28:19;;;;;;;0.90;0.90;;;17.10;54.90;;;;;;6129400;23;20215;-83
2023/11/26 03:30:46;;;;;;;1.05;0.90;;;17.10;54.80;;;;;;6103658;23;20151;-83
2023/11/26 03:33:16;;;;;;;1.17;1.05;;;17.10;54.70;;;;;;6155060;23;20131;-83
2023/11/26 03:35:43;;;;;;;1.10;0.90;;;17.10;54.90;;;;;;6152781;23;20217;-83
2023/11/26 03:38:09;;;;;;;1.00;0.90;;;17.10;54.90;;;;;;6102836;23;20154;-82
2023/11/26 03:40:35;;;;;;;0.95;0.85;;;17.10;54.80;;;;;;6127294;23;20167;-83
2023/11/26 03:43:01;;;;;;;0.98;0.90;;;17.10;54.90;;;;;;6138336;23;20209;-84
2023/11/26 03:45:26;;;;;;;0.82;0.80;;;17.10;54.70;;;;;;6124612;23;20214;-84
2023/11/26 03:47:52;;;;;;;1.02;0.90;;;17.10;54.80;;;;;;6151500;23;20650;-83
2023/11/26 03:50:19;;;;;;;0.98;0.90;;;17.00;54.80;;;;;;6104358;23;20159;-83
2023/11/26 03:52:45;;;;;;;0.70;0.70;;;17.10;54.70;;;;;;6155046;23;20184;-82
2023/11/26 03:55:11;;;;;;;1.05;0.95;;;17.20;54.90;;;;;;6127446;23;20194;-83
2023/11/26 03:57:37;;;;;;;0.70;0.70;;;17.10;54.90;;;;;;6129696;23;20132;-83
2023/11/26 04:00:08;;;;;;;1.17;1.00;;;17.10;55.70;;;;;;6104873;23;20492;-84
2023/11/26 04:02:35;;;;;;;1.58;0.90;;;17.10;54.80;;;;;;6130703;23;20607;-84
2023/11/26 04:05:03;;;;;;;0.80;0.80;;;17.10;54.90;;;;;;6080019;23;20226;-83
2023/11/26 04:07:30;;;;;;;0.88;0.88;;;17.00;54.80;;;;;;6128885;23;20139;-83
2023/11/26 04:09:55;;;;;;;0.73;0.73;;;17.10;55.00;;;;;;6156011;23;20138;-84
2023/11/26 04:12:21;;;;;;;0.90;0.80;;;17.10;54.80;;;;;;6104237;23;20147;-83
2023/11/26 04:14:56;;;;;;;0.70;0.70;;;17.10;54.80;;;;;;6127135;23;20178;-84
2023/11/26 04:17:22;;;;;;;1.17;1.08;;;17.10;54.80;;;;;;6129622;23;20138;-82
2023/11/26 04:19:49;;;;;;;1.13;1.02;;;17.10;54.70;;;;;;6105727;23;20282;-85
2023/11/26 04:22:18;;;;;;;1.65;0.90;;;17.10;54.70;;;;;;6105652;23;20184;-84
2023/11/26 04:24:44;;;;;;;0.95;0.85;;;17.10;54.70;;;;;;6105466;23;20154;-84
2023/11/26 04:27:11;;;;;;;0.73;0.73;;;17.10;54.70;;;;;;6130505;23;20210;-84
2023/11/26 04:29:37;;;;;;;1.10;1.00;;;17.10;54.80;;;;;;6130468;23;20164;-83
2023/11/26 04:32:03;;;;;;;1.05;0.95;;;17.10;54.80;;;;;;6105616;23;20151;-83
2023/11/26 04:34:29;;;;;;;1.00;0.90;;;17.10;54.90;;;;;;6105047;23;20154;-83
2023/11/26 04:36:55;;;;;;;0.88;0.80;;;17.10;54.90;;;;;;6112512;23;20486;-83
2023/11/26 04:39:21;;;;;;;0.70;0.70;;;17.10;54.90;;;;;;6134923;23;20127;-83
2023/11/26 04:44:12;;;;;;;1.10;1.00;;;17.10;54.70;;;;;;6155275;23;20654;-81
2023/11/26 04:46:38;;;;;;;0.68;0.68;;;17.10;54.60;;;;;;6128715;23;20139;-83
2023/11/26 04:49:04;;;;;;;1.15;1.05;;;17.10;54.80;;;;;;6129129;23;20131;-83
2023/11/26 04:51:34;;;;;;;1.60;0.98;;;17.10;54.70;;;;;;6155181;23;20586;-83
2023/11/26 04:54:00;;;;;;;0.80;0.80;;;17.10;54.80;;;;;;6127363;23;20132;-84
2023/11/26 04:56:26;;;;;;;1.00;0.90;;;17.10;54.70;;;;;;6128662;23;20148;-84
2023/11/26 04:58:53;;;;;;;0.90;0.70;;;17.10;54.70;;;;;;6128509;23;20156;-85
2023/11/26 05:01:18;;;;;;;1.10;1.00;;;17.10;54.60;;;;;;6127921;23;20606;-82
2023/11/26 05:03:44;;;;;;;0.77;0.75;;;17.10;54.70;;;;;;6127870;23;20147;-83
2023/11/26 05:08:53;;;;;;;0.80;0.80;;;17.00;54.70;;;;;;6184555;23;20178;-83
2023/11/26 05:11:19;;;;;;;1.70;1.10;;;17.10;54.90;;;;;;6158381;23;20629;-83
2023/11/26 05:13:45;;;;;;;0.82;0.82;;;17.00;54.80;;;;;;6184240;23;20135;-83
2023/11/26 05:16:11;;;;;;;1.13;1.00;;;17.00;54.70;;;;;;6133233;23;20147;-83
2023/11/26 05:18:37;;;;;;;0.85;0.82;;;17.00;54.80;;;;;;6158058;23;20581;-83
2023/11/26 05:21:03;;;;;;;0.88;0.80;;;17.00;54.70;;;;;;6133463;23;20228;-82
2023/11/26 05:23:28;;;;;;;0.70;0.70;;;17.00;54.60;;;;;;6157910;23;20149;-84
2023/11/26 05:28:19;;;;;;;0.90;0.90;;;17.00;54.70;;;;;;6154700;23;20589;-82
2023/11/26 05:30:46;;;;;;;0.70;0.60;;;17.00;54.70;;;;;;6128511;23;20202;-84
2023/11/26 05:33:12;;;;;;;0.70;0.70;;;17.00;54.50;;;;;;6154381;23;20136;-82
2023/11/26 05:35:38;;;;;;;0.73;0.70;;;17.00;54.60;;;;;;6103680;23;20459;-82
2023/11/26 05:38:04;;;;;;;0.75;0.75;;;17.00;54.60;;;;;;6152415;23;20544;-83
2023/11/26 05:40:30;;;;;;;0.90;0.82;;;17.00;54.70;;;;;;6151853;23;20591;-82
2023/11/26 05:42:56;;;;;;;0.80;0.77;;;17.00;54.60;;;;;;6128362;23;20643;-82
2023/11/26 05:45:22;;;;;;;0.77;0.77;;;17.10;54.70;;;;;;6129012;23;20187;-83
2023/11/26 05:47:48;;;;;;;0.73;0.73;;;17.10;54.70;;;;;;6129389;23;20590;-83
2023/11/26 05:50:15;;;;;;;1.10;0.95;;;17.00;54.50;;;;;;6127792;23;20190;-83
2023/11/26 05:52:41;;;;;;;1.17;1.05;;;17.00;54.50;;;;;;6129201;23;20136;-83
2023/11/26 05:55:08;;;;;;;1.00;0.80;;;17.00;54.50;;;;;;6151994;23;20179;-84
2023/11/26 05:57:34;;;;;;;1.00;0.90;;;17.00;54.50;;;;;;6126835;23;20140;-82
2023/11/26 06:02:25;;;;;;;1.52;0.90;;;17.00;54.60;;;;;;6152060;23;20207;-83
2023/11/26 06:04:56;;;;;;;0.90;0.90;;;17.00;54.60;;;;;;6127710;23;20183;-83
2023/11/26 06:07:23;;;;;;;1.52;0.95;;;17.00;54.50;;;;;;6127314;23;20286;-83
2023/11/26 06:12:14;;;;;;;0.95;0.80;;;17.00;54.50;;;;;;6149393;23;20222;-82
2023/11/26 06:14:41;;;;;;;0.80;0.80;;;17.00;54.40;;;;;;6128318;23;20798;-82
2023/11/26 06:17:06;;;;;;;0.80;0.80;;;17.00;54.40;;;;;;6154462;23;20218;-84
2023/11/26 06:19:32;;;;;;;0.95;0.80;;;17.00;54.50;;;;;;6104733;23;20593;-84
2023/11/26 06:21:58;;;;;;;0.70;0.70;;;17.00;54.50;;;;;;6128894;23;20140;-84
2023/11/26 06:24:24;;;;;;;0.77;0.77;;;17.00;54.60;;;;;;6127331;23;20206;-85
2023/11/26 06:26:52;;;;;;;1.02;0.80;;;17.00;54.60;;;;;;6154113;23;20127;-84
2023/11/26 06:29:18;;;;;;;0.93;0.80;;;17.10;54.60;;;;;;6126289;23;20132;-82
2023/11/26 06:31:44;;;;;;;1.05;0.85;;;17.00;54.40;;;;;;6125876;23;20151;-83
2023/11/26 06:36:35;;;;;;;0.85;0.82;;;17.00;54.50;;;;;;6147390;23;20203;-80
2023/11/26 06:39:01;;;;;;;0.60;0.60;;;17.00;54.50;;;;;;6151988;23;20458;-83
2023/11/26 06:41:29;;;;;;;1.25;0.90;;;17.00;54.50;;;;;;6124784;23;20639;-81
2023/11/26 06:43:55;;;;;;;1.02;0.93;;;17.00;54.60;;;;;;6100220;23;20165;-83
2023/11/26 06:46:22;;;;;;;0.80;0.80;;;17.00;54.50;;;;;;6124423;23;20148;-81
2023/11/26 06:48:48;;;;;;;0.98;0.88;;;17.00;54.60;;;;;;6102410;23;20470;-83
2023/11/26 06:51:14;;;;;;;0.90;0.90;;;16.90;54.50;;;;;;6151260;23;20633;-84
2023/11/26 06:53:39;;;;;;;0.80;0.80;;;17.00;54.60;;;;;;6127787;23;20163;-81
2023/11/26 06:56:06;;;;;;;0.82;0.77;;;17.00;54.50;;;;;;6151158;23;20211;-83
2023/11/26 06:58:36;;;;;;;1.05;0.90;;;17.00;54.50;;;;;;6152223;23;20555;-83
2023/11/26 07:26:56;;;;;;;0.98;0.88;;;17.00;54.40;;;;;;6138396;23;20426;-83
2023/11/26 07:29:22;;;;;;;0.88;0.88;;;17.10;54.20;;;;;;6154896;23;20179;-82
2023/11/26 07:31:48;;;;;;;0.95;0.90;;;17.10;54.70;;;;;;6104756;23;20238;-81
2023/11/26 07:34:14;;;;;;;0.70;0.70;;;17.10;54.70;;;;;;6129573;23;20132;-83
2023/11/26 07:36:40;;;;;;;0.80;0.73;;;17.10;54.20;;;;;;6128717;23;20151;-81
2023/11/26 07:39:06;;;;;;;1.00;1.00;;;17.10;54.30;;;;;;6104780;23;20162;-83
2023/11/26 07:41:33;;;;;;;0.90;0.90;;;17.00;54.40;;;;;;6105118;23;20163;-81
2023/11/26 07:43:59;;;;;;;0.75;0.75;;;17.10;54.30;;;;;;6129508;23;20475;-81
2023/11/26 07:46:25;;;;;;;1.02;0.90;;;17.10;55.00;;;;;;6129590;23;20234;-81
2023/11/26 07:48:51;;;;;;;0.85;0.82;;;17.00;54.30;;;;;;6129659;23;20150;-82
2023/11/26 07:51:17;;;;;;;0.70;0.70;;;17.00;54.30;;;;;;6128197;23;20250;-82
2023/11/26 07:53:43;;;;;;;0.82;0.77;;;17.00;54.40;;;;;;6103148;23;20936;-82
2023/11/26 07:56:10;;;;;;;1.13;0.85;;;17.00;54.70;;;;;;6126300;23;20151;-83
2023/11/26 07:58:36;;;;;;;1.27;0.90;;;17.10;54.00;;;;;;6103412;23;20603;-82
2023/11/26 08:06:13;;;;;;;1.25;0.80;;;17.10;54.20;;;;;;6136840;23;20764;-82
2023/11/26 08:08:40;;;;;;;1.00;1.00;;;17.20;53.80;;;;;;6154165;23;20139;-83
2023/11/26 08:11:08;;;;;;;0.88;0.80;;;17.30;53.80;;;;;;6130214;23;20451;-82
2023/11/26 08:13:38;;;;;;;0.90;0.90;;;17.20;53.80;;;;;;6129574;23;20506;-82
2023/11/26 08:16:07;;;;;;;0.60;0.60;;;17.20;54.10;;;;;;6143350;23;20202;-84
2023/11/26 08:18:35;;;;;;;1.10;1.00;;;17.20;53.40;;;;;;6106679;23;20154;-82
2023/11/26 08:21:04;;;;;;;1.08;0.98;;;17.20;53.50;;;;;;6155259;23;20213;-83
2023/11/26 08:23:30;;;;;;;0.85;0.85;;;17.20;53.30;;;;;;6157270;23;20195;-84
2023/11/26 08:25:58;;;;;;;0.80;0.80;;;17.20;53.50;;;;;;6157860;23;20195;-82
2023/11/26 08:28:28;;;;;;;0.80;0.80;;;17.20;53.20;;;;;;6156498;23;20215;-82
2023/11/26 08:30:55;;;;;;;0.70;0.70;;;17.20;53.40;;;;;;6130996;23;20191;-83
2023/11/26 08:33:22;;;;;;;1.50;0.70;;;17.30;53.10;;;;;;6157454;23;20282;-82
2023/11/26 08:35:53;;;;;;;1.77;0.80;;;17.30;53.20;;;;;;6108224;23;20155;-83
2023/11/26 08:38:19;;;;;;;1.77;1.00;;;17.40;52.80;;;;;;6132952;23;20213;-84
2023/11/26 08:40:45;;;;;;;0.80;0.80;;;17.40;53.10;;;;;;6131054;23;20566;-82
2023/11/26 08:43:19;;;;;;;1.25;0.80;;;17.50;53.70;;;;;;6158053;23;20146;-83
2023/11/26 08:45:45;;;;;;;1.00;0.90;;;17.50;53.40;;;;;;6082650;23;20155;-81
2023/11/26 08:48:13;;;;;;;2.35;0.75;;;17.50;53.70;;;;;;6156188;23;20131;-83
2023/11/26 08:50:41;;;;;;;2.47;0.90;;;17.50;53.70;;;;;;6159699;23;20136;-83
2023/11/26 08:53:09;;;;;;;1.35;0.90;;;17.50;52.60;;;;;;6133414;23;20478;-83
2023/11/26 08:55:40;;;;;;;4.80;0.75;;;17.50;53.80;;;;;;6158459;23;20151;-83
2023/11/26 08:58:07;;;;;;;1.25;0.70;;;17.60;52.60;;;;;;6160370;23;20136;-85
2023/11/26 09:00:32;;;;;;;1.75;0.80;;;17.50;53.20;;;;;;6110262;23;20183;-84
2023/11/26 09:02:58;;;;;;;3.15;0.88;;;17.60;51.80;;;;;;6133221;23;20548;-83
2023/11/26 09:05:24;;;;;;;4.30;0.85;;;17.70;52.60;;;;;;6117603;23;20139;-84
2023/11/26 09:07:51;;;;;;;6.55;1.08;;;17.60;52.20;;;;;;6120998;23;20191;-84
2023/11/26 09:10:17;;;;;;;2.03;0.73;;;17.60;52.50;;;;;;6099866;23;20231;-84
2023/11/26 09:12:43;;;;;;;0.88;0.70;;;17.60;52.70;;;;;;6139141;23;20139;-83
2023/11/26 09:15:11;;;;;;;0.80;0.80;;;17.50;52.30;;;;;;6131891;23;20131;-84
2023/11/26 09:17:39;;;;;;;2.17;0.73;;;17.50;52.60;;;;;;6156610;23;20586;-83
2023/11/26 09:20:11;;;;;;;0.60;0.60;;;17.50;52.80;;;;;;6131581;23;20254;-83
2023/11/26 09:22:41;;;;;;;1.23;0.93;;;17.50;52.00;;;;;;6157485;23;20203;-83
2023/11/26 09:25:13;;;;;;;1.33;0.68;;;17.50;52.50;;;;;;6131283;23;20136;-83
2023/11/26 09:27:40;;;;;;;2.22;0.70;;;17.40;52.50;;;;;;6105972;23;20667;-83
2023/11/26 09:30:20;;;;;;;0.77;0.77;;;17.50;52.60;;;;;;6157056;23;20222;-83
2023/11/26 09:32:57;;;;;;;1.60;0.65;;;17.50;52.30;;;;;;6082142;23;20226;-83
2023/11/26 09:35:22;;;;;;;2.28;0.70;;;17.60;52.40;;;;;;6129985;23;20182;-83
2023/11/26 09:37:48;;;;;;;0.68;0.60;;;17.60;52.10;;;;;;6156836;23;20156;-83
2023/11/26 09:40:14;;;;;;;1.08;0.75;;;17.60;51.90;;;;;;6105868;23;20179;-83
2023/11/26 09:42:52;;;;;;;0.93;0.75;;;17.60;51.50;;;;;;6156755;23;20151;-83
2023/11/26 09:45:18;;;;;;;0.90;0.70;;;17.60;52.50;;;;;;6108114;23;20190;-83
2023/11/26 09:47:48;;;;;;;0.82;0.73;;;17.60;52.20;;;;;;6156794;23;20444;-85
2023/11/26 09:50:14;;;;;;;2.03;0.93;;;17.70;52.20;;;;;;6157278;23;20148;-83
2023/11/26 09:52:47;;;;;;;1.77;0.70;;;17.70;52.40;;;;;;6130771;23;20198;-84
2023/11/26 09:55:16;;;;;;;0.85;0.80;;;17.70;52.30;;;;;;6130486;23;20227;-83
2023/11/26 09:57:42;;;;;;;1.05;0.77;;;17.70;51.80;;;;;;6130916;23;20136;-81
2023/11/26 10:00:16;;;;;;;2.60;0.75;;;17.70;52.60;;;;;;6131171;23;20671;-82
2023/11/26 10:02:42;;;;;;;1.40;0.65;;;17.80;52.20;;;;;;6104236;23;20170;-82
2023/11/26 10:05:24;;;;;;;1.60;0.82;;;17.80;51.60;;;;;;6156387;23;20194;-81
2023/11/26 10:07:52;;;;;;;0.98;0.70;;;17.80;52.20;;;;;;6155351;23;20496;-82
2023/11/26 10:10:18;;;;;;;0.73;0.63;;;17.80;52.10;;;;;;6130104;23;20140;-82
2023/11/26 10:12:56;;;;;;;0.95;0.80;;;17.70;52.10;;;;;;6156979;23;20196;-82
2023/11/26 10:15:24;;;;;;;2.47;0.80;;;17.80;52.80;;;;;;6081102;23;20155;-81
2023/11/26 10:18:07;;;;;;;1.10;0.90;;;17.70;53.10;;;;;;6155691;23;20138;-82
2023/11/26 10:20:38;;;;;;;2.65;0.65;;;17.80;52.50;;;;;;6103769;23;20183;-82
2023/11/26 10:23:05;;;;;;;1.95;0.70;;;17.80;51.60;;;;;;6100825;23;20287;-82
2023/11/26 10:25:31;;;;;;;0.70;0.70;;;17.80;52.30;;;;;;6106114;23;20831;-82
2023/11/26 10:27:59;;;;;;;1.45;0.70;;;17.80;52.20;;;;;;6130992;23;20860;-82
2023/11/26 10:30:29;;;;;;;2.55;0.60;;;17.80;52.30;;;;;;6101154;23;20817;-81
2023/11/26 10:33:01;;;;;;;0.95;0.60;;;17.80;51.90;;;;;;6077227;23;20160;-84
2023/11/26 10:35:57;;;;;;;2.67;0.73;;;17.90;52.50;;;;;;6101242;23;20164;-82
2023/11/26 10:38:25;;;;;;;0.90;0.70;;;17.90;52.50;;;;;;6104107;23;20181;-83
2023/11/26 10:40:51;;;;;;;0.60;0.60;;;17.90;52.60;;;;;;6054759;23;20218;-81
2023/11/26 10:43:17;;;;;;;0.75;0.60;;;17.90;51.90;;;;;;6098732;23;20214;-82
2023/11/26 10:45:44;;;;;;;0.80;0.80;;;17.90;52.50;;;;;;6123521;23;20153;-82
2023/11/26 10:48:13;;;;;;;0.88;0.70;;;18.00;52.50;;;;;;6100361;23;20560;-82
2023/11/26 10:51:00;;;;;;;1.45;0.70;;;17.90;53.20;;;;;;6076889;23;20156;-81
2023/11/26 10:53:59;;;;;;;1.70;0.90;;;17.90;53.40;;;;;;6107944;23;20136;-81
2023/11/26 10:56:36;;;;;;;1.02;0.70;;;17.90;52.10;;;;;;6080675;23;20152;-82
2023/11/26 10:59:02;;;;;;;1.65;0.80;;;18.00;53.00;;;;;;6109665;23;20140;-83
2023/11/26 11:01:28;;;;;;;0.70;0.70;;;18.00;53.80;;;;;;6095927;23;20302;-82
2023/11/26 11:03:57;;;;;;;2.33;0.77;;;18.00;52.30;;;;;;6136345;23;20128;-84
2023/11/26 11:06:23;;;;;;;2.25;0.90;;;18.00;53.00;;;;;;6133530;23;20135;-84
2023/11/26 11:08:55;;;;;;;0.90;0.70;;;18.00;53.50;;;;;;6133058;23;20210;-82
2023/11/26 11:11:47;;;;;;;1.30;0.88;;;18.00;53.90;;;;;;6062136;23;20215;-82
2023/11/26 11:14:33;;;;;;;1.33;0.63;;;18.00;54.00;;;;;;6159087;23;20470;-84
2023/11/26 11:17:28;;;;;;;0.57;0.57;;;18.00;53.60;;;;;;6019465;23;20301;-81
2023/11/26 11:19:55;;;;;;;4.20;0.60;;;17.90;53.40;;;;;;6043343;23;20162;-82
2023/11/26 11:22:36;;;;;;;0.70;0.70;;;17.90;53.30;;;;;;6018962;23;20252;-83
2023/11/26 11:25:15;;;;;;;1.95;0.73;;;18.00;53.80;;;;;;6039683;23;20154;-84
2023/11/26 11:27:58;;;;;;;0.80;0.80;;;18.00;53.70;;;;;;5985943;24;20155;-83
2023/11/26 11:30:49;;;;;;;1.02;0.80;;;18.00;53.90;;;;;;5986646;24;20144;-84
2023/11/26 11:33:18;;;;;;;0.73;0.68;;;18.00;53.50;;;;;;5981354;24;20158;-83
2023/11/26 11:35:46;;;;;;;0.88;0.60;;;18.00;53.70;;;;;;5987181;23;20176;-83
2023/11/26 11:38:12;;;;;;;1.45;0.73;;;18.00;53.40;;;;;;5986736;23;20151;-84
2023/11/26 11:40:58;;;;;;;0.77;0.60;;;18.00;53.50;;;;;;5992429;23;20232;-81
2023/11/26 11:43:24;;;;;;;2.92;0.60;;;18.10;53.90;;;;;;6039270;23;20170;-84
2023/11/26 11:45:50;;;;;;;1.80;0.90;;;18.00;53.50;;;;;;6016405;23;20158;-83
2023/11/26 11:48:50;;;;;;;2.20;0.55;;;18.10;54.20;;;;;;6042495;23;20280;-83
2023/11/26 11:52:06;;;;;;;2.25;0.60;;;18.10;52.70;;;;;;6020459;23;20216;-83
2023/11/26 11:55:03;;;;;;;0.68;0.68;;;18.00;54.00;;;;;;5930329;24;20156;-84
2023/11/26 11:57:36;;;;;;;2.95;0.70;;;18.00;53.60;;;;;;5928804;24;20159;-84
2023/11/26 12:00:08;;;;;;;1.75;0.70;;;18.00;53.40;;;;;;5957950;24;20206;-84
2023/11/26 12:02:40;;;;;;;3.35;0.70;;;18.00;53.80;;;;;;5958220;24;20190;-84
2023/11/26 12:05:20;;;;;;;4.50;0.73;;;18.00;53.60;;;;;;5947066;24;20196;-83
2023/11/26 12:07:47;;;;;;;2.63;0.70;;;18.10;54.10;;;;;;5963309;24;20162;-84
2023/11/26 12:10:34;;;;;;;1.52;0.70;;;18.10;54.50;;;;;;5964135;24;20207;-83
2023/11/26 12:13:05;;;;;;;2.05;0.80;;;18.00;54.10;;;;;;5921062;24;20265;-83
2023/11/26 12:15:31;;;;;;;0.55;0.52;;;18.10;54.40;;;;;;5970874;24;20155;-83
2023/11/26 12:18:03;;;;;;;2.70;0.80;;;18.00;54.40;;;;;;5956424;24;20341;-84
2023/11/26 12:20:33;;;;;;;3.80;0.77;;;18.10;54.50;;;;;;5949467;24;20191;-82
2023/11/26 12:22:59;;;;;;;1.15;0.70;;;18.10;54.40;;;;;;5926879;24;20274;-83
2023/11/26 12:25:28;;;;;;;1.00;0.63;;;18.10;54.70;;;;;;5947009;24;20175;-84
2023/11/26 12:28:03;;;;;;;5.22;0.80;;;18.10;54.30;;;;;;5981583;24;20148;-83
2023/11/26 12:30:36;;;;;;;3.53;0.80;;;18.00;54.40;;;;;;5985477;23;20634;-84
2023/11/26 12:33:05;;;;;;;2.72;0.82;;;18.10;54.20;;;;;;6081347;23;20201;-82
2023/11/26 12:35:33;;;;;;;4.60;0.77;;;18.10;54.50;;;;;;6094843;23;20166;-83
2023/11/26 12:38:06;;;;;;;2.40;0.70;;;18.10;54.40;;;;;;6066341;23;20500;-84
2023/11/26 12:40:34;;;;;;;2.45;0.80;;;18.10;54.80;;;;;;6063813;23;20198;-83
2023/11/26 12:43:00;;;;;;;2.28;0.65;;;18.10;54.40;;;;;;6063095;23;20211;-82
2023/11/26 12:45:28;;;;;;;4.97;0.80;;;18.10;54.30;;;;;;6143217;23;20158;-82
2023/11/26 12:47:56;;;;;;;2.53;0.80;;;18.10;54.10;;;;;;6118110;23;20147;-83
2023/11/26 12:50:23;;;;;;;1.60;0.70;;;18.10;54.30;;;;;;6108982;23;20195;-83
2023/11/26 12:52:49;;;;;;;2.30;0.80;;;18.10;54.20;;;;;;6086076;23;20275;-82
2023/11/26 12:55:15;;;;;;;3.53;0.90;;;18.10;54.30;;;;;;6110618;23;20280;-83
2023/11/26 12:57:42;;;;;;;3.85;1.08;;;18.10;54.20;;;;;;6109279;23;20245;-83
2023/11/26 13:00:10;;;;;;;5.18;0.95;;;18.10;54.50;;;;;;6086049;23;20183;-82
2023/11/26 13:02:38;;;;;;;4.53;0.80;;;18.10;54.30;;;;;;6085700;23;20140;-83
2023/11/26 13:05:29;;;;;;;1.75;0.98;;;18.10;53.80;;;;;;6106070;23;20220;-83
2023/11/26 13:07:56;;;;;;;9.43;1.23;;;18.20;54.00;;;;;;6082562;23;20155;-83
2023/11/26 13:10:47;;;;;;;4.38;0.90;;;18.10;54.20;;;;;;6125460;23;20147;-82
2023/11/26 13:13:31;;;;;;;2.22;0.80;;;18.10;54.50;;;;;;6099537;23;20163;-83
2023/11/26 13:15:58;;;;;;;6.97;1.17;;;18.10;54.60;;;;;;6101640;23;20595;-82
2023/11/26 13:18:25;;;;;;;7.55;0.90;;;18.10;54.90;;;;;;6079871;23;20612;-82
2023/11/26 13:20:58;;;;;;;9.02;1.35;;;18.00;54.70;;;;;;6126362;23;20189;-83
2023/11/26 13:23:24;;;;;;;8.13;1.08;;;18.10;54.90;;;;;;6100895;23;20560;-82
2023/11/26 13:25:51;;;;;;;5.68;1.05;;;18.10;54.20;;;;;;6101226;23;20143;-83
2023/11/26 13:28:19;;;;;;;6.30;1.05;;;18.10;54.20;;;;;;6075722;23;20637;-84
2023/11/26 13:30:45;;;;;;;5.43;1.20;;;18.10;53.90;;;;;;6100600;23;20619;-84
2023/11/26 13:33:12;;;;;;;7.00;1.05;;;18.10;53.80;;;;;;6098610;23;20195;-82
2023/11/26 13:35:40;;;;;;;7.50;1.02;;;18.20;53.60;;;;;;6098787;23;20453;-82
2023/11/26 13:38:11;;;;;;;7.18;1.08;;;18.20;54.50;;;;;;6124532;23;20228;-86
2023/11/26 13:40:38;;;;;;;7.05;1.15;;;18.10;54.30;;;;;;6091499;23;20275;-83
2023/11/26 13:43:05;;;;;;;2.88;0.82;;;18.10;54.70;;;;;;6129065;23;20182;-84
2023/11/26 13:45:31;;;;;;;7.53;1.20;;;18.10;55.30;;;;;;6129590;23;20136;-83